Time;durP1;ratioP1;P1;durP2;ratioP2;P2;SDS_P1;SDS_P2;PMS_P1;PMS_P2;Temp;Humidity;BMP_temperature;BMP_pressure;BME280_temperature;BME280_humidity;BME280_pressure;Samples;Min_cycle;Max_cycle;Signal;HPM_P1;HPM_P2
2023/09/23 00:01:05;;;;;;;4.68;0.50;;;;;;;14.52;85.60;100485.22;7360204;19;20045;-66
2023/09/23 00:03:33;;;;;;;3.22;0.30;;;;;;;14.50;86.29;100492.53;7358926;19;20033;-65
2023/09/23 00:06:02;;;;;;;3.42;0.30;;;;;;;14.48;85.98;100494.53;7362059;19;21209;-66
2023/09/23 00:08:30;;;;;;;2.28;0.32;;;;;;;14.45;86.02;100494.09;7361919;19;20025;-65
2023/09/23 00:10:57;;;;;;;3.45;0.30;;;;;;;14.43;86.03;100499.56;7362154;19;20018;-66
2023/09/23 00:13:25;;;;;;;4.20;0.60;;;;;;;14.40;86.25;100505.25;7359943;19;20750;-66
2023/09/23 00:15:52;;;;;;;1.27;0.40;;;;;;;14.38;86.11;100501.94;7360455;19;20016;-70
2023/09/23 00:18:20;;;;;;;2.40;0.20;;;;;;;14.39;86.64;100516.81;7360533;19;20014;-65
2023/09/23 00:20:48;;;;;;;4.78;0.88;;;;;;;14.40;86.35;100510.53;7359223;19;20022;-66
2023/09/23 00:23:16;;;;;;;1.65;0.30;;;;;;;14.37;85.72;100512.75;7356689;19;20119;-66
2023/09/23 00:25:46;;;;;;;1.58;0.30;;;;;;;14.32;85.92;100512.44;7357230;19;20423;-66
2023/09/23 00:28:14;;;;;;;3.58;0.30;;;;;;;14.26;85.83;100516.66;7355182;19;20381;-66
2023/09/23 00:30:45;;;;;;;3.90;0.30;;;;;;;14.22;85.94;100519.84;7361000;19;20026;-65
2023/09/23 00:33:16;;;;;;;4.30;0.28;;;;;;;14.23;86.35;100518.81;7359280;19;20018;-66
2023/09/23 00:35:44;;;;;;;2.28;0.30;;;;;;;14.22;86.46;100520.63;7356916;19;20025;-66
2023/09/23 00:38:12;;;;;;;3.25;0.28;;;;;;;14.21;85.89;100520.84;7360308;19;20055;-66
2023/09/23 00:40:40;;;;;;;4.32;0.40;;;;;;;14.16;85.85;100523.22;7356034;19;20037;-66
2023/09/23 00:43:09;;;;;;;4.05;0.30;;;;;;;14.14;85.95;100523.41;7354098;19;20106;-66
2023/09/23 00:45:36;;;;;;;4.93;0.38;;;;;;;14.17;86.62;100525.66;7357613;19;20471;-66
2023/09/23 00:48:08;;;;;;;3.78;0.30;;;;;;;14.19;86.69;100525.50;7356680;19;21395;-66
2023/09/23 00:50:36;;;;;;;3.75;0.30;;;;;;;14.21;85.98;100524.31;7352599;19;20014;-66
2023/09/23 00:53:05;;;;;;;3.83;0.50;;;;;;;14.20;86.27;100532.44;7357661;19;20014;-66
2023/09/23 00:55:40;;;;;;;3.83;0.25;;;;;;;14.23;85.46;100534.69;7354889;19;20018;-65
2023/09/23 00:58:14;;;;;;;5.03;0.77;;;;;;;14.22;85.86;100541.03;7349667;19;20397;-67
2023/09/23 01:00:45;;;;;;;7.90;0.40;;;;;;;14.20;85.22;100543.84;7351721;19;20481;-67
2023/09/23 01:03:12;;;;;;;3.83;0.30;;;;;;;14.18;85.24;100545.84;7355092;19;20136;-66
2023/09/23 01:05:40;;;;;;;4.13;0.40;;;;;;;14.17;85.54;100549.47;7356570;19;20018;-67
2023/09/23 01:08:11;;;;;;;5.30;0.35;;;;;;;14.17;87.01;100544.19;7357626;19;20014;-66
2023/09/23 01:10:39;;;;;;;4.95;0.30;;;;;;;14.22;86.87;100548.97;7354118;19;20016;-66
2023/09/23 01:13:08;;;;;;;1.77;0.25;;;;;;;14.20;85.85;100546.50;7349583;19;20026;-65
2023/09/23 01:15:46;;;;;;;4.50;0.35;;;;;;;14.16;85.36;100547.88;7358929;19;20037;-67
2023/09/23 01:18:14;;;;;;;4.68;0.40;;;;;;;14.11;85.41;100550.25;7356711;19;20019;-66
2023/09/23 01:20:42;;;;;;;4.68;0.30;;;;;;;14.03;85.22;100559.06;7358490;19;20034;-66
2023/09/23 01:23:11;;;;;;;3.95;0.30;;;;;;;13.99;85.67;100556.97;7355087;19;20545;-66
2023/09/23 01:25:39;;;;;;;1.75;0.30;;;;;;;14.04;86.88;100559.88;7354022;19;20049;-66
2023/09/23 01:28:11;;;;;;;2.22;0.28;;;;;;;14.03;86.32;100563.53;7351538;19;20010;-66
2023/09/23 01:30:40;;;;;;;6.43;0.40;;;;;;;14.00;85.61;100572.66;7353887;19;20014;-66
2023/09/23 01:33:08;;;;;;;3.83;0.30;;;;;;;13.98;85.29;100566.72;7354490;19;20022;-66
2023/09/23 01:35:37;;;;;;;4.35;0.40;;;;;;;13.96;86.26;100558.16;7354658;19;21558;-64
2023/09/23 01:38:06;;;;;;;5.35;0.35;;;;;;;13.92;86.38;100559.50;7354117;19;20362;-65
2023/09/23 01:40:36;;;;;;;9.02;1.58;;;;;;;13.93;86.80;100555.88;7359111;19;20053;-66
2023/09/23 01:43:04;;;;;;;3.17;0.60;;;;;;;13.93;86.52;100560.34;7350886;19;20553;-66
2023/09/23 01:45:32;;;;;;;5.22;0.50;;;;;;;13.90;86.80;100558.06;7358640;19;20006;-65
2023/09/23 01:47:59;;;;;;;4.25;0.30;;;;;;;13.88;86.31;100555.59;7352200;19;20138;-67
2023/09/23 01:50:27;;;;;;;3.20;0.50;;;;;;;13.89;86.03;100559.88;7353380;19;20018;-67
2023/09/23 01:52:59;;;;;;;6.88;0.47;;;;;;;13.84;85.92;100564.06;7353471;19;20450;-66
2023/09/23 01:55:28;;;;;;;1.75;0.22;;;;;;;13.83;86.25;100570.34;7349964;19;20051;-65
2023/09/23 01:57:56;;;;;;;6.82;0.60;;;;;;;13.84;86.91;100574.66;7347183;19;20017;-67
2023/09/23 02:00:28;;;;;;;3.80;0.30;;;;;;;13.84;87.62;100572.81;7349804;19;20052;-65
2023/09/23 02:02:57;;;;;;;4.10;0.55;;;;;;;13.78;86.84;100573.53;7352261;19;20370;-65
2023/09/23 02:05:29;;;;;;;4.82;0.43;;;;;;;13.80;86.36;100584.78;7356913;19;20015;-65
2023/09/23 02:07:56;;;;;;;5.70;1.00;;;;;;;13.76;85.60;100586.13;7353211;19;20281;-66
2023/09/23 02:10:26;;;;;;;3.90;0.50;;;;;;;13.76;86.44;100586.13;7353898;19;20015;-66
2023/09/23 02:12:54;;;;;;;5.32;0.40;;;;;;;13.71;86.19;100591.94;7351784;19;20037;-66
2023/09/23 02:15:22;;;;;;;10.10;0.60;;;;;;;13.71;86.82;100591.16;7359312;19;20021;-66
2023/09/23 02:17:49;;;;;;;4.35;0.40;;;;;;;13.71;87.49;100589.28;7351588;19;20007;-66
2023/09/23 02:20:19;;;;;;;14.98;2.47;;;;;;;13.70;86.72;100598.25;7356832;19;20362;-67
2023/09/23 02:22:50;;;;;;;8.00;0.50;;;;;;;13.67;86.58;100598.59;7353586;19;20059;-65
2023/09/23 02:25:18;;;;;;;4.93;0.40;;;;;;;13.65;86.70;100605.06;7354917;19;20026;-65
2023/09/23 02:27:46;;;;;;;4.20;0.40;;;;;;;13.60;86.43;100600.31;7351555;19;20321;-66
2023/09/23 02:30:14;;;;;;;4.72;0.30;;;;;;;13.57;86.25;100611.22;7353935;19;20620;-66
2023/09/23 02:32:43;;;;;;;5.20;0.40;;;;;;;13.55;87.16;100605.31;7353888;19;20022;-66
2023/09/23 02:35:12;;;;;;;3.95;0.50;;;;;;;13.50;87.05;100605.03;7354723;19;20074;-67
2023/09/23 02:37:42;;;;;;;4.10;0.30;;;;;;;13.52;86.55;100602.19;7352942;19;20089;-66
2023/09/23 02:40:14;;;;;;;5.50;0.47;;;;;;;13.53;86.33;100611.78;7354541;19;20023;-66
2023/09/23 02:42:42;;;;;;;5.23;0.40;;;;;;;13.52;86.15;100618.88;7348795;19;20341;-67
2023/09/23 02:45:12;;;;;;;4.65;0.60;;;;;;;13.45;86.36;100615.31;7354794;19;20033;-65
2023/09/23 02:47:45;;;;;;;7.13;0.40;;;;;;;13.40;86.43;100622.94;7354799;19;20158;-66
2023/09/23 02:50:14;;;;;;;5.80;0.50;;;;;;;13.41;86.97;100619.28;7352047;19;20014;-65
2023/09/23 02:52:44;;;;;;;3.42;0.40;;;;;;;13.42;87.39;100628.88;7350836;19;20082;-66
2023/09/23 02:55:14;;;;;;;6.47;0.45;;;;;;;13.44;87.11;100632.16;7357590;19;20019;-65
2023/09/23 02:57:46;;;;;;;3.95;0.35;;;;;;;13.43;87.23;100640.25;7339110;19;22154;-65
2023/09/23 03:00:16;;;;;;;5.22;0.43;;;;;;;13.37;86.80;100636.50;7354962;19;20538;-65
2023/09/23 03:02:53;;;;;;;6.40;0.40;;;;;;;13.37;86.79;100643.59;7356702;19;20398;-66
2023/09/23 03:05:28;;;;;;;5.70;0.50;;;;;;;13.37;88.03;100640.94;7361150;19;20023;-65
2023/09/23 03:07:59;;;;;;;6.28;0.50;;;;;;;13.33;87.64;100637.84;7363900;19;20512;-65
2023/09/23 03:10:34;;;;;;;5.05;0.82;;;;;;;13.28;87.51;100648.94;7363544;19;20015;-65
2023/09/23 03:13:06;;;;;;;5.60;0.40;;;;;;;13.25;87.35;100651.94;7360769;19;20011;-67
2023/09/23 03:15:37;;;;;;;6.40;0.50;;;;;;;13.24;87.25;100647.66;7362707;19;20039;-66
2023/09/23 03:18:06;;;;;;;6.57;0.50;;;;;;;13.31;87.89;100662.81;7361032;19;20659;-65
2023/09/23 03:20:36;;;;;;;4.55;0.40;;;;;;;13.30;87.94;100658.53;7364023;19;20019;-65
2023/09/23 03:23:04;;;;;;;3.13;0.40;;;;;;;13.30;88.18;100656.72;7360265;19;20039;-65
2023/09/23 03:25:31;;;;;;;3.90;0.32;;;;;;;13.30;88.34;100663.81;7362384;19;20029;-66
2023/09/23 03:27:59;;;;;;;3.08;0.40;;;;;;;13.28;87.85;100667.44;7357079;19;20106;-65
2023/09/23 03:30:27;;;;;;;4.53;0.40;;;;;;;13.29;87.35;100676.19;7363992;19;20049;-66
2023/09/23 03:32:55;;;;;;;6.72;0.40;;;;;;;13.30;87.10;100677.84;7362696;19;20080;-66
2023/09/23 03:35:24;;;;;;;5.15;0.30;;;;;;;13.30;87.22;100683.13;7363276;19;20596;-66
2023/09/23 03:37:53;;;;;;;5.68;0.43;;;;;;;13.27;87.18;100686.94;7360880;19;20010;-65
2023/09/23 03:40:24;;;;;;;5.75;0.30;;;;;;;13.27;88.58;100684.28;7359210;19;20014;-66
2023/09/23 03:42:52;;;;;;;6.47;0.60;;;;;;;13.21;87.27;100682.34;7357004;19;20015;-66
2023/09/23 03:45:19;;;;;;;3.75;0.50;;;;;;;13.22;87.12;100691.91;7361552;19;20377;-66
2023/09/23 03:47:47;;;;;;;6.88;1.50;;;;;;;13.23;87.33;100690.94;7360266;19;20022;-66
2023/09/23 03:50:16;;;;;;;4.90;0.60;;;;;;;13.22;87.20;100709.59;7358298;19;20875;-65
2023/09/23 03:52:44;;;;;;;6.57;0.47;;;;;;;13.18;87.34;100695.91;7357920;19;20015;-66
2023/09/23 03:55:12;;;;;;;6.63;0.47;;;;;;;13.16;87.53;100705.81;7359539;19;20852;-66
2023/09/23 03:57:40;;;;;;;3.42;0.30;;;;;;;13.17;88.78;100712.75;7357911;19;20010;-65
2023/09/23 04:02:48;;;;;;;7.68;0.65;;;;;;;13.22;87.89;100714.88;7355993;19;20374;-66
2023/09/23 04:05:16;;;;;;;8.52;0.50;;;;;;;13.24;87.89;100713.72;7358890;19;20031;-66
2023/09/23 04:07:50;;;;;;;4.70;0.50;;;;;;;13.23;87.52;100721.81;7360106;19;20014;-66
2023/09/23 04:10:23;;;;;;;8.18;0.60;;;;;;;13.21;87.36;100721.13;7356821;19;20451;-65
2023/09/23 04:12:51;;;;;;;3.10;0.40;;;;;;;13.21;88.62;100729.06;7355056;19;20682;-66
2023/09/23 04:15:19;;;;;;;2.92;0.60;;;;;;;13.20;87.94;100716.88;7361462;19;20430;-67
2023/09/23 04:17:47;;;;;;;4.82;0.30;;;;;;;13.19;87.45;100723.97;7357390;19;20596;-65
2023/09/23 04:20:15;;;;;;;4.30;0.50;;;;;;;13.20;87.71;100730.09;7359330;19;20021;-66
2023/09/23 04:22:43;;;;;;;4.47;0.43;;;;;;;13.21;87.18;100732.53;7356670;19;20031;-65
2023/09/23 04:25:10;;;;;;;6.50;0.70;;;;;;;13.21;87.43;100729.06;7360132;19;20049;-65
2023/09/23 04:27:38;;;;;;;11.43;0.45;;;;;;;13.20;87.38;100740.66;7354993;19;20010;-66
2023/09/23 04:30:11;;;;;;;6.90;1.35;;;;;;;13.18;87.29;100740.81;7357408;19;20011;-66
2023/09/23 04:32:40;;;;;;;3.97;0.30;;;;;;;13.14;87.58;100744.81;7359244;19;20494;-66
2023/09/23 04:35:09;;;;;;;4.32;0.50;;;;;;;13.09;87.30;100749.75;7360530;19;20024;-66
2023/09/23 04:37:37;;;;;;;4.78;0.50;;;;;;;13.08;87.52;100756.03;7355872;19;20035;-66
2023/09/23 04:40:09;;;;;;;4.85;0.40;;;;;;;13.02;87.56;100759.34;7360640;19;20023;-66
2023/09/23 04:42:38;;;;;;;4.17;0.33;;;;;;;13.04;87.92;100761.81;7354814;19;20783;-65
2023/09/23 04:45:09;;;;;;;2.42;0.40;;;;;;;13.03;87.74;100765.44;7354649;19;20909;-65
2023/09/23 04:47:37;;;;;;;2.97;0.40;;;;;;;13.03;88.05;100762.81;7358425;19;20026;-65
2023/09/23 04:50:08;;;;;;;1.92;0.40;;;;;;;13.03;88.03;100765.44;7355698;19;20038;-66
2023/09/23 04:52:36;;;;;;;3.50;0.40;;;;;;;12.99;87.68;100772.06;7354304;19;20406;-65
2023/09/23 04:55:04;;;;;;;6.57;0.43;;;;;;;12.99;87.79;100780.00;7360281;19;20014;-67
2023/09/23 04:57:31;;;;;;;7.32;0.55;;;;;;;13.00;87.63;100792.22;7358431;19;20006;-66
2023/09/23 04:59:58;;;;;;;7.18;0.40;;;;;;;13.00;87.59;100782.47;7354983;19;20477;-67
2023/09/23 05:02:26;;;;;;;5.20;0.70;;;;;;;13.07;88.01;100790.53;7352314;19;20085;-66
2023/09/23 05:04:53;;;;;;;4.70;0.50;;;;;;;13.08;88.17;100795.66;7353306;19;20094;-66
2023/09/23 05:07:25;;;;;;;8.50;0.50;;;;;;;13.06;87.38;100802.91;7358116;19;20738;-66
2023/09/23 05:09:55;;;;;;;4.03;0.38;;;;;;;13.09;87.00;100807.03;7356879;19;20035;-66
2023/09/23 05:12:24;;;;;;;4.88;0.40;;;;;;;13.06;87.60;100808.19;7353015;19;20864;-66
2023/09/23 05:14:51;;;;;;;7.47;0.45;;;;;;;13.04;87.23;100818.13;7355768;19;20401;-65
2023/09/23 05:17:21;;;;;;;5.47;0.35;;;;;;;13.01;86.82;100813.16;7357034;19;20569;-65
2023/09/23 05:19:49;;;;;;;4.85;0.43;;;;;;;13.00;87.51;100819.44;7355926;19;20019;-66
2023/09/23 05:22:16;;;;;;;6.25;0.40;;;;;;;12.97;87.54;100825.06;7356544;19;20752;-66
2023/09/23 05:24:47;;;;;;;8.07;0.40;;;;;;;12.98;87.72;100826.72;7355402;19;20010;-66
2023/09/23 05:27:15;;;;;;;5.47;0.40;;;;;;;12.98;87.64;100834.63;7351876;19;20014;-66
2023/09/23 05:29:44;;;;;;;5.88;0.47;;;;;;;12.96;87.66;100844.53;7360637;19;20086;-67
2023/09/23 05:32:12;;;;;;;7.20;0.40;;;;;;;12.95;87.21;100844.72;7356393;19;20011;-66
2023/09/23 05:34:39;;;;;;;10.27;0.40;;;;;;;12.97;87.66;100854.09;7355908;19;20082;-65
2023/09/23 05:37:12;;;;;;;5.28;0.82;;;;;;;12.94;88.06;100857.09;7356788;19;20293;-68
2023/09/23 05:39:45;;;;;;;;;;;;;;;12.91;87.86;100862.69;7359515;19;21244;-65
2023/09/23 05:42:15;;;;;;;4.38;0.40;;;;;;;12.87;87.69;100861.38;7354850;19;19941;-66
2023/09/23 05:44:43;;;;;;;7.47;0.47;;;;;;;12.87;87.58;100866.66;7357489;19;20010;-67
2023/09/23 05:47:11;;;;;;;3.33;0.30;;;;;;;12.86;87.54;100878.22;7356990;19;20573;-66
2023/09/23 05:49:39;;;;;;;6.85;0.50;;;;;;;12.85;87.08;100880.03;7356197;19;20022;-66
2023/09/23 05:52:06;;;;;;;5.88;0.40;;;;;;;12.81;87.24;100884.00;7354417;19;20027;-66
2023/09/23 05:54:34;;;;;;;6.05;0.40;;;;;;;12.79;87.97;100888.63;7354954;19;20014;-65
2023/09/23 05:57:01;;;;;;;4.88;0.30;;;;;;;12.79;87.80;100887.81;7351101;19;20019;-66
2023/09/23 05:59:30;;;;;;;9.15;0.70;;;;;;;12.77;87.73;100889.78;7354342;19;20022;-66
2023/09/23 06:01:58;;;;;;;2.53;0.30;;;;;;;12.75;87.71;100897.03;7350030;19;20617;-65
2023/09/23 06:04:25;;;;;;;4.60;1.90;;;;;;;12.73;87.92;100897.22;7350314;19;20022;-65
2023/09/23 06:06:54;;;;;;;7.47;0.40;;;;;;;12.75;87.91;100899.66;7354380;19;20018;-66
2023/09/23 06:09:23;;;;;;;4.32;0.30;;;;;;;12.72;88.28;100906.13;7356002;19;20879;-67
2023/09/23 06:11:51;;;;;;;7.70;0.47;;;;;;;12.75;89.26;100910.22;7349522;19;20015;-67
2023/09/23 06:14:18;;;;;;;4.57;0.30;;;;;;;12.72;88.33;100914.03;7354451;19;20018;-66
2023/09/23 06:16:47;;;;;;;3.85;0.30;;;;;;;12.69;88.31;100924.94;7353915;19;20014;-67
2023/09/23 06:19:15;;;;;;;3.90;0.47;;;;;;;12.70;87.70;100923.09;7355321;19;20022;-67
2023/09/23 06:21:43;;;;;;;7.28;1.08;;;;;;;12.70;88.00;100928.38;7351358;19;20002;-67
2023/09/23 06:24:10;;;;;;;5.70;0.30;;;;;;;12.69;87.53;100935.50;7354215;19;20660;-65
2023/09/23 06:26:38;;;;;;;6.97;0.40;;;;;;;12.69;88.03;100942.59;7351931;19;20039;-66
2023/09/23 06:29:06;;;;;;;4.93;0.40;;;;;;;12.71;88.59;100945.88;7355770;19;20022;-66
2023/09/23 06:31:33;;;;;;;4.00;0.40;;;;;;;12.71;88.27;100937.94;7353048;19;20098;-66
2023/09/23 06:34:01;;;;;;;5.25;0.50;;;;;;;12.73;88.14;100950.00;7362087;19;20022;-67
2023/09/23 06:36:28;;;;;;;7.57;0.68;;;;;;;12.77;87.87;100951.34;7362663;19;20910;-66
2023/09/23 06:38:56;;;;;;;5.30;0.40;;;;;;;12.82;88.06;100956.94;7361981;19;20018;-67
2023/09/23 06:41:23;;;;;;;5.03;0.45;;;;;;;12.82;87.28;100951.66;7360501;19;20041;-67
2023/09/23 06:43:52;;;;;;;4.35;0.43;;;;;;;12.87;88.48;100959.09;7359694;19;20097;-66
2023/09/23 06:46:19;;;;;;;5.10;0.40;;;;;;;12.91;88.15;100952.50;7361438;19;20025;-65
2023/09/23 06:48:47;;;;;;;5.35;0.47;;;;;;;12.99;87.05;100951.69;7359743;19;20021;-66
2023/09/23 06:51:15;;;;;;;6.72;0.50;;;;;;;12.96;86.69;100952.81;7360618;19;20030;-65
2023/09/23 06:53:42;;;;;;;8.07;0.40;;;;;;;12.95;87.24;100948.56;7361202;19;20467;-66
2023/09/23 06:56:12;;;;;;;5.38;0.52;;;;;;;12.94;86.57;100954.00;7357548;19;20387;-66
2023/09/23 06:58:40;;;;;;;3.80;0.43;;;;;;;12.93;86.40;100952.34;7355467;19;20019;-65
2023/09/23 07:01:07;;;;;;;2.97;0.30;;;;;;;12.97;86.56;100956.28;7363693;19;20014;-66
2023/09/23 07:03:35;;;;;;;4.15;0.50;;;;;;;12.98;86.88;100961.41;7357846;19;20014;-66
2023/09/23 07:06:02;;;;;;;5.45;0.38;;;;;;;12.97;86.66;100959.75;7355090;19;20327;-66
2023/09/23 07:08:30;;;;;;;3.10;0.38;;;;;;;12.96;86.38;100958.09;7361752;19;20339;-67
2023/09/23 07:10:57;;;;;;;6.05;0.60;;;;;;;12.98;86.25;100965.88;7361247;19;20393;-65
2023/09/23 07:13:25;;;;;;;3.38;0.50;;;;;;;13.05;88.58;100969.50;7359165;19;20033;-67
2023/09/23 07:15:52;;;;;;;5.18;0.50;;;;;;;13.08;87.46;100972.63;7360735;19;20007;-67
2023/09/23 07:18:19;;;;;;;7.30;0.60;;;;;;;13.14;86.86;100981.75;7361510;19;21087;-66
2023/09/23 07:20:47;;;;;;;7.28;0.60;;;;;;;13.12;86.40;100989.84;7362428;19;20014;-65
2023/09/23 07:23:14;;;;;;;7.90;0.60;;;;;;;13.13;85.90;101001.22;7360853;19;20029;-65
2023/09/23 07:25:42;;;;;;;5.85;0.40;;;;;;;13.11;85.89;101004.03;7362299;19;20029;-68
2023/09/23 07:28:10;;;;;;;8.00;0.73;;;;;;;13.16;86.69;101006.19;7356349;19;20664;-66
2023/09/23 07:30:38;;;;;;;5.50;1.35;;;;;;;13.20;86.31;101005.72;7357924;19;20015;-65
2023/09/23 07:33:05;;;;;;;5.78;0.65;;;;;;;13.23;86.34;101010.66;7359328;19;20014;-65
2023/09/23 07:35:33;;;;;;;4.13;0.40;;;;;;;13.27;86.46;101022.53;7360796;19;20442;-67
2023/09/23 07:38:02;;;;;;;3.97;0.47;;;;;;;13.40;86.34;101026.50;7357198;19;20449;-66
2023/09/23 07:40:31;;;;;;;5.85;0.50;;;;;;;13.51;86.81;101034.09;7358556;19;20363;-65
2023/09/23 07:42:58;;;;;;;4.30;0.40;;;;;;;13.56;86.07;101037.06;7355414;19;20577;-66
2023/09/23 07:45:26;;;;;;;6.45;0.63;;;;;;;13.61;85.47;101040.03;7359630;19;20010;-65
2023/09/23 07:47:53;;;;;;;9.77;0.60;;;;;;;13.63;85.16;101043.31;7356599;19;20379;-66
2023/09/23 07:50:21;;;;;;;6.75;1.08;;;;;;;13.62;84.99;101046.97;7358971;19;21350;-65
2023/09/23 07:52:49;;;;;;;4.03;0.68;;;;;;;13.65;84.81;101049.28;7353894;19;20049;-68
2023/09/23 07:55:17;;;;;;;6.00;0.50;;;;;;;13.65;85.30;101055.41;7357686;19;20086;-65
2023/09/23 07:57:45;;;;;;;4.32;0.50;;;;;;;13.69;85.00;101061.19;7353999;19;20021;-66
2023/09/23 08:00:13;;;;;;;4.82;0.50;;;;;;;13.70;84.97;101057.53;7358876;19;20018;-66
2023/09/23 08:02:44;;;;;;;4.50;0.40;;;;;;;13.73;85.01;101064.31;7358589;19;20015;-66
2023/09/23 08:05:12;;;;;;;5.00;0.50;;;;;;;13.75;86.22;101060.50;7353182;19;20067;-67
2023/09/23 08:07:40;;;;;;;7.03;0.50;;;;;;;13.82;85.09;101065.94;7351759;19;20021;-65
2023/09/23 08:10:10;;;;;;;4.38;0.40;;;;;;;14.00;84.16;101072.69;7355624;19;20029;-66
2023/09/23 08:12:37;;;;;;;3.70;0.65;;;;;;;14.48;82.52;101071.72;7354428;19;20014;-66
2023/09/23 08:15:08;;;;;;;4.45;0.40;;;;;;;14.74;80.20;101062.66;7356653;19;20530;-67
2023/09/23 08:17:49;;;;;;;5.60;0.50;;;;;;;14.73;80.32;101069.78;7356191;19;20068;-66
2023/09/23 08:20:19;;;;;;;5.90;0.50;;;;;;;14.62;79.56;101072.84;7361958;19;20018;-65
2023/09/23 08:22:48;;;;;;;7.05;0.43;;;;;;;14.55;80.06;101069.22;7356471;19;20018;-66
2023/09/23 08:25:18;;;;;;;10.65;0.50;;;;;;;14.50;80.50;101071.56;7360643;19;20017;-67
2023/09/23 08:27:46;;;;;;;5.38;0.50;;;;;;;14.45;80.76;101076.56;7353924;19;20065;-66
2023/09/23 08:30:16;;;;;;;6.18;0.65;;;;;;;14.45;80.79;101081.84;7357931;19;21651;-66
2023/09/23 08:32:45;;;;;;;5.25;0.43;;;;;;;14.45;80.95;101087.16;7355872;19;20625;-66
2023/09/23 08:35:13;;;;;;;6.43;0.50;;;;;;;14.45;81.11;101077.38;7358174;19;20345;-66
2023/09/23 08:37:40;;;;;;;8.70;0.55;;;;;;;14.41;81.09;101078.72;7358505;19;20007;-66
2023/09/23 08:40:10;;;;;;;7.13;0.40;;;;;;;14.45;80.95;101090.63;7360136;19;20014;-67
2023/09/23 08:42:39;;;;;;;7.03;0.45;;;;;;;14.47;81.76;101086.00;7352537;19;20098;-66
2023/09/23 08:45:08;;;;;;;3.50;0.32;;;;;;;14.55;82.64;101083.28;7356633;19;20010;-67
2023/09/23 08:47:38;;;;;;;5.57;0.40;;;;;;;14.57;81.88;101100.84;7355243;19;20018;-66
2023/09/23 08:50:08;;;;;;;12.80;0.57;;;;;;;14.62;81.81;101098.50;7357787;19;20090;-66
2023/09/23 08:52:36;;;;;;;6.70;1.05;;;;;;;14.64;81.25;101099.97;7353755;19;20481;-66
2023/09/23 08:55:07;;;;;;;2.58;0.30;;;;;;;14.71;81.51;101110.72;7357356;19;20025;-66
2023/09/23 08:57:34;;;;;;;8.00;0.50;;;;;;;14.74;81.35;101110.34;7354263;19;20553;-65
2023/09/23 09:00:07;;;;;;;4.32;0.30;;;;;;;14.79;81.50;101121.25;7355332;19;20002;-66
2023/09/23 09:02:35;;;;;;;3.42;0.30;;;;;;;14.83;81.21;101122.59;7357505;19;20018;-66
2023/09/23 09:05:03;;;;;;;7.53;0.45;;;;;;;14.86;81.33;101120.41;7351446;19;20100;-66
2023/09/23 09:07:35;;;;;;;14.23;0.90;;;;;;;14.89;80.66;101130.66;7351870;19;20022;-66
2023/09/23 09:10:04;;;;;;;8.57;0.50;;;;;;;14.92;79.98;101137.44;7354304;19;20045;-66
2023/09/23 09:12:33;;;;;;;7.15;0.43;;;;;;;14.96;79.77;101142.22;7352081;19;20011;-65
2023/09/23 09:17:35;;;;;;;5.72;0.40;;;;;;;15.02;79.74;101158.41;7356482;19;20006;-65
2023/09/23 09:20:09;;;;;;;5.97;0.30;;;;;;;15.03;79.26;101165.38;7357698;19;20597;-65
2023/09/23 09:22:38;;;;;;;4.78;0.60;;;;;;;15.06;79.52;101160.53;7358480;19;20601;-66
2023/09/23 09:25:11;;;;;;;6.40;0.68;;;;;;;15.08;79.39;101171.81;7355013;19;20015;-66
2023/09/23 09:27:44;;;;;;;4.78;0.40;;;;;;;15.11;79.23;101167.97;7351814;19;20010;-67
2023/09/23 09:30:11;;;;;;;7.53;0.47;;;;;;;15.18;78.84;101168.94;7357748;19;20136;-66
2023/09/23 09:32:42;;;;;;;7.47;0.50;;;;;;;15.22;79.30;101156.97;7351399;19;20402;-66
2023/09/23 09:35:13;;;;;;;4.40;0.52;;;;;;;15.28;79.96;101162.41;7353706;19;20010;-67
2023/09/23 09:37:43;;;;;;;10.38;1.52;;;;;;;15.34;79.88;101153.75;7355990;19;20507;-66
2023/09/23 09:40:17;;;;;;;8.18;0.40;;;;;;;15.37;79.30;101158.72;7355817;19;20365;-66
2023/09/23 09:42:54;;;;;;;6.22;0.30;;;;;;;15.45;79.15;101154.34;7354802;19;20010;-66
2023/09/23 09:45:23;;;;;;;4.65;0.32;;;;;;;15.52;79.25;101164.09;7354154;19;20404;-66
2023/09/23 09:47:53;;;;;;;7.80;0.47;;;;;;;15.57;79.46;101169.72;7351347;19;20010;-67
2023/09/23 09:50:24;;;;;;;6.55;0.38;;;;;;;15.58;78.20;101170.53;7357543;19;20033;-65
2023/09/23 09:52:53;;;;;;;6.25;0.40;;;;;;;15.65;78.67;101169.63;7349653;19;20021;-64
2023/09/23 09:55:25;;;;;;;5.85;0.30;;;;;;;15.74;79.70;101165.94;7354189;19;20400;-65
2023/09/23 09:57:54;;;;;;;6.45;0.50;;;;;;;15.79;79.01;101160.09;7352866;19;20023;-65
2023/09/23 10:00:30;;;;;;;6.38;0.75;;;;;;;15.87;79.19;101164.50;7358544;19;20031;-66
2023/09/23 10:03:05;;;;;;;8.75;0.90;;;;;;;15.90;78.64;101164.16;7338917;19;20554;-66
2023/09/23 10:05:34;;;;;;;5.57;0.40;;;;;;;15.93;78.02;101167.28;7352623;19;20014;-66
2023/09/23 10:08:15;;;;;;;7.18;0.40;;;;;;;15.98;77.44;101172.03;7348968;19;20793;-65
2023/09/23 10:10:47;;;;;;;6.20;0.50;;;;;;;16.05;77.21;101163.16;7349855;19;20017;-66
2023/09/23 10:13:19;;;;;;;5.38;0.40;;;;;;;16.09;76.75;101174.25;7351049;19;20216;-64
2023/09/23 10:15:47;;;;;;;5.40;0.57;;;;;;;16.12;76.50;101174.72;7358208;19;20038;-65
2023/09/23 10:18:17;;;;;;;5.30;1.45;;;;;;;16.20;77.66;101171.19;7353869;19;20348;-65
2023/09/23 10:20:50;;;;;;;8.88;0.50;;;;;;;16.47;86.67;101175.84;7355039;19;20031;-66
2023/09/23 10:23:21;;;;;;;8.95;0.50;;;;;;;16.77;91.02;101181.19;7356298;19;20522;-66
2023/09/23 10:25:50;;;;;;;5.53;0.65;;;;;;;16.78;85.11;101175.69;7355709;19;20017;-65
2023/09/23 10:28:21;;;;;;;7.22;0.40;;;;;;;16.96;86.55;101186.78;7352867;19;20014;-65
2023/09/23 10:30:58;;;;;;;7.93;0.40;;;;;;;17.12;82.98;101191.06;7354663;19;20015;-65
2023/09/23 10:33:26;;;;;;;3.85;0.50;;;;;;;17.23;83.65;101179.94;7351485;19;20097;-65
2023/09/23 10:35:56;;;;;;;5.53;0.50;;;;;;;17.33;82.09;101193.75;7356496;19;20026;-65
2023/09/23 10:38:39;;;;;;;6.97;0.60;;;;;;;17.33;77.43;101193.75;7354289;19;20019;-64
2023/09/23 10:41:07;;;;;;;4.95;0.30;;;;;;;17.36;78.24;101188.09;7351082;19;20026;-66
2023/09/23 10:43:35;;;;;;;3.30;0.60;;;;;;;17.37;74.93;101194.22;7349848;19;20122;-66
2023/09/23 10:46:03;;;;;;;4.50;0.40;;;;;;;17.33;73.74;101192.94;7353540;19;20391;-66
2023/09/23 10:48:31;;;;;;;5.97;0.30;;;;;;;17.34;76.26;101203.38;7353288;19;20018;-66
2023/09/23 10:51:00;;;;;;;3.47;0.40;;;;;;;17.39;76.25;101198.34;7345723;19;20653;-65
2023/09/23 10:53:29;;;;;;;3.35;0.40;;;;;;;17.42;76.43;101195.28;7352320;19;20018;-67
2023/09/23 10:55:59;;;;;;;5.53;0.30;;;;;;;17.43;74.90;101201.44;7350657;19;20018;-65
2023/09/23 10:58:28;;;;;;;6.03;0.50;;;;;;;17.42;73.73;101195.28;7351334;19;20059;-67
2023/09/23 11:00:57;;;;;;;7.32;0.43;;;;;;;17.53;76.74;101207.28;7352668;19;20021;-66
2023/09/23 11:03:24;;;;;;;5.05;0.20;;;;;;;17.57;73.40;101203.25;7350458;19;20036;-66
2023/09/23 11:05:53;;;;;;;4.70;0.30;;;;;;;17.52;69.87;101197.66;7348509;19;20014;-66
2023/09/23 11:08:22;;;;;;;4.18;0.35;;;;;;;17.44;68.34;101209.25;7347917;19;20010;-65
2023/09/23 11:10:50;;;;;;;1.67;0.20;;;;;;;17.46;68.67;101203.72;7347363;19;20025;-65
2023/09/23 11:13:18;;;;;;;3.00;0.20;;;;;;;17.45;67.91;101218.88;7350927;19;20543;-65
2023/09/23 11:15:45;;;;;;;5.65;0.20;;;;;;;17.43;66.91;101212.06;7355345;19;20058;-65
2023/09/23 11:18:15;;;;;;;5.15;0.30;;;;;;;17.43;68.46;101217.41;7354319;19;20511;-66
2023/09/23 11:20:45;;;;;;;2.90;0.30;;;;;;;17.45;68.04;101218.03;7362129;19;20022;-65
2023/09/23 11:23:14;;;;;;;3.05;0.28;;;;;;;17.41;67.75;101217.59;7357222;19;20078;-65
2023/09/23 11:25:44;;;;;;;4.10;0.20;;;;;;;17.42;67.60;101216.56;7358959;19;20093;-64
2023/09/23 11:28:21;;;;;;;4.93;0.65;;;;;;;17.48;67.49;101220.31;7357007;19;20055;-65
2023/09/23 11:30:50;;;;;;;6.03;0.35;;;;;;;17.58;67.74;101226.16;7362163;19;20018;-65
2023/09/23 11:33:19;;;;;;;2.42;0.30;;;;;;;17.59;64.07;101227.84;7356924;19;20384;-64
2023/09/23 11:35:46;;;;;;;5.22;0.43;;;;;;;17.56;62.94;101238.03;7361216;19;20972;-67
2023/09/23 11:38:14;;;;;;;2.47;0.30;;;;;;;17.54;64.60;101239.03;7358891;19;20025;-65